createdAt,value
2022-08-26T00:01:58.167Z,101149.41
2022-08-26T00:04:34.080Z,101165.09
2022-08-26T00:07:06.453Z,101160.47
2022-08-26T00:09:40.379Z,101164.03
2022-08-26T00:12:13.537Z,101165.97
2022-08-26T00:14:46.053Z,101169.72
2022-08-26T00:17:18.744Z,101171.69
2022-08-26T00:19:51.913Z,101173.59
2022-08-26T00:22:25.826Z,101182.09
2022-08-26T00:24:58.244Z,101172.81
2022-08-26T00:27:33.847Z,101177.94
2022-08-26T00:30:08.952Z,101175.31
2022-08-26T00:32:44.083Z,101180.91
2022-08-26T00:35:18.834Z,101185.91
2022-08-26T00:37:51.817Z,101183.03
2022-08-26T00:40:26.899Z,101183.97
2022-08-26T00:42:59.934Z,101190.06
2022-08-26T00:45:37.966Z,101186.47
2022-08-26T00:48:11.300Z,101190.69
2022-08-26T00:50:49.249Z,101200.22
2022-08-26T00:53:26.032Z,101195.09
2022-08-26T00:56:03.660Z,101192.94
2022-08-26T00:58:37.771Z,101196.22
2022-08-26T01:01:14.271Z,101198.91
2022-08-26T01:03:47.251Z,101188.34
2022-08-26T01:06:19.665Z,101188.66
2022-08-26T01:08:52.502Z,101191.16
2022-08-26T01:11:25.189Z,101195.38
2022-08-26T01:13:59.579Z,101185.75
2022-08-26T01:16:33.226Z,101193.06
2022-08-26T01:19:25.872Z,101193.53
2022-08-26T01:22:01.005Z,101200.97
2022-08-26T01:24:33.719Z,101196.72
2022-08-26T01:27:07.747Z,101204.50
2022-08-26T01:29:42.676Z,101200.75
2022-08-26T01:32:18.580Z,101205.44
2022-08-26T01:34:51.831Z,101203.91
2022-08-26T01:37:27.162Z,101196.41
2022-08-26T01:39:59.879Z,101204.56
2022-08-26T01:42:32.742Z,101196.59
2022-08-26T01:45:07.134Z,101208.69
2022-08-26T01:47:39.984Z,101202.13
2022-08-26T01:50:27.891Z,101208.63
2022-08-26T01:53:06.254Z,101207.19
2022-08-26T01:55:39.722Z,101211.84
2022-08-26T01:58:14.959Z,101212.91
2022-08-26T02:00:47.899Z,101205.09
2022-08-26T02:03:23.769Z,101206.25
2022-08-26T02:06:03.243Z,101202.06
2022-08-26T02:08:47.959Z,101212.97
2022-08-26T02:11:21.087Z,101209.38
2022-08-26T02:14:11.578Z,101213.63
2022-08-26T02:16:46.438Z,101216.41
2022-08-26T02:19:20.614Z,101213.91
2022-08-26T02:21:54.269Z,101219.50
2022-08-26T02:24:28.587Z,101223.69
2022-08-26T02:27:01.106Z,101219.13
2022-08-26T02:29:35.693Z,101223.22
2022-08-26T02:32:08.541Z,101226.47
2022-08-26T02:34:41.531Z,101231.00
2022-08-26T02:37:14.490Z,101228.81
2022-08-26T02:39:50.148Z,101231.91
2022-08-26T02:42:22.577Z,101243.41
2022-08-26T02:44:55.310Z,101245.22
2022-08-26T02:47:29.005Z,101242.25
2022-08-26T02:50:01.828Z,101237.44
2022-08-26T02:52:34.277Z,101228.84
2022-08-26T02:55:07.422Z,101234.16
2022-08-26T02:57:39.885Z,101231.72
2022-08-26T03:00:14.640Z,101226.78
2022-08-26T03:02:47.052Z,101232.56
2022-08-26T03:05:20.291Z,101230.72
2022-08-26T03:07:52.881Z,101236.59
2022-08-26T03:10:26.388Z,101238.81
2022-08-26T03:13:00.527Z,101241.00
2022-08-26T03:15:37.605Z,101238.88
2022-08-26T03:18:10.965Z,101239.53
2022-08-26T03:20:43.966Z,101239.09
2022-08-26T03:23:16.921Z,101241.78
2022-08-26T03:25:51.678Z,101241.16
2022-08-26T03:28:24.360Z,101229.22
2022-08-26T03:31:00.046Z,101239.59
2022-08-26T03:33:32.463Z,101239.59
2022-08-26T03:36:07.674Z,101244.28
2022-08-26T03:38:40.120Z,101245.63
2022-08-26T03:41:12.569Z,101234.84
2022-08-26T03:43:44.918Z,101247.72
2022-08-26T03:46:18.155Z,101244.28
2022-08-26T03:48:50.627Z,101246.91
2022-08-26T03:51:24.270Z,101246.25
2022-08-26T03:53:57.071Z,101245.00
2022-08-26T03:56:30.178Z,101245.31
2022-08-26T03:59:03.653Z,101240.00
2022-08-26T04:01:36.944Z,101244.84
2022-08-26T04:04:09.327Z,101245.59
2022-08-26T04:06:44.884Z,101246.38
2022-08-26T04:09:21.024Z,101248.09
2022-08-26T04:11:53.897Z,101253.88
2022-08-26T04:14:27.421Z,101253.28
2022-08-26T04:16:59.812Z,101246.91
2022-08-26T04:19:32.697Z,101254.06
2022-08-26T04:22:05.117Z,101242.66
2022-08-26T04:24:39.469Z,101240.00
2022-08-26T04:27:12.060Z,101238.56
2022-08-26T04:29:46.162Z,101246.19
2022-08-26T04:32:20.310Z,101232.66
2022-08-26T04:34:52.640Z,101238.28
2022-08-26T04:37:25.252Z,101240.91
2022-08-26T04:39:58.031Z,101241.78
2022-08-26T04:42:32.056Z,101241.00
2022-08-26T04:45:10.253Z,101239.00
2022-08-26T04:47:43.993Z,101249.09
2022-08-26T04:50:17.281Z,101246.59
2022-08-26T04:52:50.476Z,101253.59
2022-08-26T04:55:37.329Z,101248.56
2022-08-26T04:58:14.632Z,101252.91
2022-08-26T05:00:48.486Z,101249.16
2022-08-26T05:03:21.539Z,101250.72
2022-08-26T05:05:54.611Z,101250.72
2022-08-26T05:08:27.020Z,101256.31
2022-08-26T05:11:03.629Z,101258.06
2022-08-26T05:13:39.047Z,101255.09
2022-08-26T05:16:12.941Z,101260.84
2022-08-26T05:18:45.932Z,101262.84
2022-08-26T05:21:20.192Z,101260.06
2022-08-26T05:23:54.691Z,101260.13
2022-08-26T05:26:28.587Z,101266.63
2022-08-26T05:29:01.410Z,101261.31
2022-08-26T05:31:35.953Z,101265.81
2022-08-26T05:34:08.660Z,101264.56
2022-08-26T05:36:41.303Z,101261.28
2022-08-26T05:39:13.687Z,101273.84
2022-08-26T05:41:46.511Z,101269.91
2022-08-26T05:44:20.927Z,101275.16
2022-08-26T05:46:54.786Z,101278.22
2022-08-26T05:49:27.149Z,101291.59
2022-08-26T05:51:59.568Z,101284.53
2022-08-26T05:54:33.906Z,101293.72
2022-08-26T05:57:06.278Z,101285.59
2022-08-26T05:59:39.146Z,101298.38
2022-08-26T06:02:11.492Z,101296.63
2022-08-26T06:04:45.991Z,101300.50
2022-08-26T06:07:38.449Z,101298.38
2022-08-26T06:10:32.600Z,101301.75
2022-08-26T06:13:09.229Z,101303.53
2022-08-26T06:15:45.668Z,101309.03
2022-08-26T06:18:20.234Z,101310.28
2022-08-26T06:20:57.120Z,101304.19
2022-08-26T06:23:48.341Z,101313.38
2022-08-26T06:26:20.687Z,101312.00
2022-08-26T06:28:53.082Z,101316.94
2022-08-26T06:31:26.169Z,101322.47
2022-08-26T06:33:59.917Z,101319.66
2022-08-26T06:36:33.486Z,101316.84
2022-08-26T06:39:07.169Z,101316.00
2022-08-26T06:41:43.272Z,101319.22
2022-08-26T06:44:16.155Z,101320.28
2022-08-26T06:46:50.651Z,101328.00
2022-08-26T06:49:26.991Z,101335.44
2022-08-26T06:52:00.075Z,101332.13
2022-08-26T06:54:32.496Z,101330.16
2022-08-26T06:57:04.913Z,101334.88
2022-08-26T06:59:39.457Z,101336.38
2022-08-26T07:02:13.532Z,101344.03
2022-08-26T07:04:47.846Z,101345.38
2022-08-26T07:07:22.045Z,101345.03
2022-08-26T07:09:54.619Z,101331.75
2022-08-26T07:12:27.088Z,101330.09
2022-08-26T07:14:59.575Z,101338.88
2022-08-26T07:17:32.057Z,101338.69
2022-08-26T07:20:11.449Z,101352.25
2022-08-26T07:22:43.791Z,101348.03
2022-08-26T07:25:16.271Z,101349.16
2022-08-26T07:27:54.172Z,101357.88
2022-08-26T07:30:26.957Z,101348.94
2022-08-26T07:32:59.388Z,101356.06
2022-08-26T07:35:31.742Z,101353.66
2022-08-26T07:38:04.301Z,101361.13
2022-08-26T07:40:37.234Z,101363.91
2022-08-26T07:43:09.881Z,101368.38
2022-08-26T07:45:42.636Z,101363.25
2022-08-26T07:48:15.038Z,101372.81
2022-08-26T07:50:50.020Z,101371.28
2022-08-26T07:53:24.178Z,101370.94
2022-08-26T07:55:58.851Z,101375.34
2022-08-26T07:58:31.605Z,101379.34
2022-08-26T08:01:04.360Z,101380.09
2022-08-26T08:03:37.129Z,101381.03
2022-08-26T08:06:09.739Z,101386.75
2022-08-26T08:08:42.152Z,101394.59
2022-08-26T08:11:14.662Z,101390.81
2022-08-26T08:13:47.720Z,101386.94
2022-08-26T08:16:21.270Z,101385.25
2022-08-26T08:18:56.938Z,101381.22
2022-08-26T08:21:31.662Z,101375.00
2022-08-26T08:24:04.081Z,101384.28
2022-08-26T08:26:37.184Z,101383.28
2022-08-26T08:29:09.569Z,101384.16
2022-08-26T08:31:57.969Z,101391.91
2022-08-26T08:34:31.248Z,101390.38
2022-08-26T08:37:07.361Z,101400.91
2022-08-26T08:39:42.686Z,101392.38
2022-08-26T08:42:38.819Z,101395.56
2022-08-26T08:45:36.584Z,101385.16
2022-08-26T08:48:12.711Z,101396.50
2022-08-26T08:50:47.320Z,101389.13
2022-08-26T08:53:24.214Z,101394.09
2022-08-26T08:56:04.850Z,101388.91
2022-08-26T08:58:46.000Z,101388.75
2022-08-26T09:01:39.460Z,101387.38
2022-08-26T09:04:11.823Z,101384.84
2022-08-26T09:06:52.745Z,101394.84
2022-08-26T09:09:40.508Z,101393.66
2022-08-26T09:12:19.016Z,101402.38
2022-08-26T09:14:55.027Z,101398.00
2022-08-26T09:17:33.590Z,101400.59
2022-08-26T09:20:08.584Z,101403.47
2022-08-26T09:22:44.274Z,101401.72
2022-08-26T09:25:17.320Z,101407.03
2022-08-26T09:27:53.098Z,101403.75
2022-08-26T09:30:33.154Z,101406.16
2022-08-26T09:33:10.844Z,101402.72
2022-08-26T09:35:49.045Z,101407.56
2022-08-26T09:38:26.908Z,101411.53
2022-08-26T09:41:02.400Z,101412.94
2022-08-26T09:43:37.529Z,101414.72
2022-08-26T09:46:14.998Z,101419.38
2022-08-26T09:48:47.461Z,101410.44
2022-08-26T09:51:28.041Z,101413.59
2022-08-26T09:54:02.174Z,101413.09
2022-08-26T09:56:35.799Z,101416.72
2022-08-26T09:59:11.103Z,101415.47
2022-08-26T10:01:44.989Z,101423.78
2022-08-26T10:04:22.552Z,101413.34
2022-08-26T10:06:57.526Z,101412.69
2022-08-26T10:09:34.112Z,101416.06
2022-08-26T10:12:08.708Z,101420.97
2022-08-26T10:14:46.843Z,101418.16
2022-08-26T10:17:32.191Z,101409.44
2022-08-26T10:20:06.177Z,101410.28
2022-08-26T10:23:04.213Z,101414.09
2022-08-26T10:25:40.749Z,101409.31
2022-08-26T10:28:26.776Z,101408.31
2022-08-26T10:31:05.092Z,101405.50
2022-08-26T10:33:41.662Z,101405.94
2022-08-26T10:37:10.526Z,101406.88
2022-08-26T10:39:39.128Z,101412.84
2022-08-26T10:42:22.256Z,101406.78
2022-08-26T10:44:58.589Z,101415.06
2022-08-26T10:47:37.741Z,101409.16
2022-08-26T10:50:10.318Z,101406.06
2022-08-26T10:52:54.871Z,101402.56
2022-08-26T10:55:30.274Z,101400.25
2022-08-26T10:58:26.578Z,101410.28
2022-08-26T11:01:23.283Z,101406.28
2022-08-26T11:04:06.351Z,101411.31
2022-08-26T11:06:39.185Z,101420.91
2022-08-26T11:09:33.175Z,101412.81
2022-08-26T11:12:10.321Z,101415.63
2022-08-26T11:14:56.129Z,101420.63
2022-08-26T11:17:43.931Z,101415.78
2022-08-26T11:20:23.933Z,101416.81
2022-08-26T11:23:16.623Z,101411.78
2022-08-26T11:25:57.911Z,101407.69
2022-08-26T11:28:38.223Z,101401.88
2022-08-26T11:31:12.892Z,101408.69
2022-08-26T11:33:45.274Z,101413.38
2022-08-26T11:36:36.457Z,101410.84
2022-08-26T11:39:21.323Z,101413.38
2022-08-26T11:41:54.531Z,101415.34
2022-08-26T11:44:37.235Z,101408.75
2022-08-26T11:47:13.276Z,101411.00
2022-08-26T11:49:46.388Z,101404.88
2022-08-26T11:52:22.027Z,101419.56
2022-08-26T11:55:01.222Z,101413.69
2022-08-26T11:57:34.878Z,101417.56
2022-08-26T12:00:13.565Z,101415.16
2022-08-26T12:02:47.711Z,101419.97
2022-08-26T12:05:30.868Z,101417.72
2022-08-26T12:08:07.314Z,101420.16
2022-08-26T12:10:40.099Z,101419.38
2022-08-26T12:13:23.647Z,101427.00
2022-08-26T12:15:59.807Z,101422.19
2022-08-26T12:18:33.701Z,101422.28
2022-08-26T12:21:14.461Z,101423.06
2022-08-26T12:23:54.469Z,101422.25
2022-08-26T12:26:31.773Z,101420.53
2022-08-26T12:29:27.579Z,101418.97
2022-08-26T12:32:14.365Z,101425.00
2022-08-26T12:34:48.972Z,101425.56
2022-08-26T12:37:21.749Z,101427.00
2022-08-26T12:39:54.281Z,101427.88
2022-08-26T12:42:41.202Z,101426.34
2022-08-26T12:45:25.510Z,101421.38
2022-08-26T12:47:59.624Z,101434.28
2022-08-26T12:50:37.917Z,101434.38
2022-08-26T12:53:10.292Z,101425.91
2022-08-26T12:56:05.696Z,101423.53
2022-08-26T12:58:38.645Z,101424.69
2022-08-26T13:01:11.066Z,101419.94
2022-08-26T13:03:44.403Z,101422.19
2022-08-26T13:06:22.563Z,101421.97
2022-08-26T13:08:58.021Z,101423.44
2022-08-26T13:11:31.816Z,101421.28
2022-08-26T13:14:12.148Z,101414.34
2022-08-26T13:16:51.560Z,101413.88
2022-08-26T13:19:25.504Z,101413.25
2022-08-26T13:21:59.447Z,101409.00
2022-08-26T13:24:36.413Z,101404.25
2022-08-26T13:27:10.662Z,101405.53
2022-08-26T13:29:43.279Z,101400.25
2022-08-26T13:32:15.632Z,101396.19
2022-08-26T13:34:51.419Z,101384.53
2022-08-26T13:37:34.262Z,101397.22
2022-08-26T13:40:08.135Z,101394.53
2022-08-26T13:42:43.061Z,101397.16
2022-08-26T13:45:22.396Z,101396.22
2022-08-26T13:47:54.808Z,101395.88
2022-08-26T13:50:27.286Z,101399.81
2022-08-26T13:52:59.852Z,101399.13
2022-08-26T13:55:32.185Z,101396.88
2022-08-26T13:58:04.607Z,101390.13
2022-08-26T14:00:37.689Z,101394.19
2022-08-26T14:03:13.421Z,101397.94
2022-08-26T14:05:45.984Z,101392.72
2022-08-26T14:08:18.393Z,101393.94
2022-08-26T14:10:50.766Z,101390.41
2022-08-26T14:13:24.704Z,101386.19
2022-08-26T14:15:59.590Z,101390.94
2022-08-26T14:18:33.574Z,101403.03
2022-08-26T14:21:07.899Z,101405.97
2022-08-26T14:23:41.334Z,101400.28
2022-08-26T14:26:28.705Z,101391.56
2022-08-26T14:29:03.779Z,101383.59
2022-08-26T14:31:37.746Z,101392.09
2022-08-26T14:34:12.993Z,101390.78
2022-08-26T14:36:45.346Z,101395.94
2022-08-26T14:39:17.691Z,101393.97
2022-08-26T14:41:54.603Z,101396.44
2022-08-26T14:44:29.156Z,101399.69
2022-08-26T14:47:02.412Z,101409.28
2022-08-26T14:49:34.811Z,101404.47
2022-08-26T14:52:07.194Z,101409.88
2022-08-26T14:54:39.559Z,101403.44
2022-08-26T14:57:13.020Z,101399.00
2022-08-26T14:59:49.923Z,101408.22
2022-08-26T15:02:32.535Z,101406.75
2022-08-26T15:05:08.388Z,101396.78
2022-08-26T15:07:40.790Z,101403.94
2022-08-26T15:10:14.328Z,101397.19
2022-08-26T15:12:46.745Z,101391.47
2022-08-26T15:15:19.286Z,101401.09
2022-08-26T15:17:51.640Z,101389.81
2022-08-26T15:20:24.052Z,101390.03
2022-08-26T15:22:56.978Z,101388.94
2022-08-26T15:25:34.555Z,101389.72
2022-08-26T15:28:06.949Z,101386.78
2022-08-26T15:30:39.369Z,101392.72
2022-08-26T15:33:15.054Z,101387.41
2022-08-26T15:35:47.899Z,101386.56
2022-08-26T15:38:20.243Z,101384.59
2022-08-26T15:40:52.622Z,101385.91
2022-08-26T15:43:29.094Z,101388.38
2022-08-26T15:46:01.868Z,101392.56
2022-08-26T15:48:34.273Z,101388.25
2022-08-26T15:51:07.682Z,101374.56
2022-08-26T15:53:40.021Z,101384.28
2022-08-26T15:56:12.988Z,101378.50
2022-08-26T15:58:45.427Z,101375.72
2022-08-26T16:01:27.416Z,101368.25
2022-08-26T16:04:00.483Z,101359.69
2022-08-26T16:06:34.024Z,101359.63
2022-08-26T16:09:07.268Z,101357.78
2022-08-26T16:11:39.677Z,101348.44
2022-08-26T16:14:12.277Z,101349.50
2022-08-26T16:16:44.592Z,101350.28
2022-08-26T16:19:16.984Z,101346.03
2022-08-26T16:21:51.193Z,101341.97
2022-08-26T16:24:28.419Z,101348.50
2022-08-26T16:27:03.206Z,101351.59
2022-08-26T16:29:37.950Z,101343.00
2022-08-26T16:32:10.304Z,101352.56
2022-08-26T16:34:46.926Z,101352.63
2022-08-26T16:37:28.580Z,101344.44
2022-08-26T16:40:01.096Z,101352.00
2022-08-26T16:42:33.523Z,101345.91
2022-08-26T16:45:06.264Z,101347.53
2022-08-26T16:47:38.821Z,101348.47
2022-08-26T16:50:12.873Z,101353.16
2022-08-26T16:52:45.818Z,101343.28
2022-08-26T16:55:18.762Z,101351.91
2022-08-26T16:57:51.658Z,101353.94
2022-08-26T17:00:26.072Z,101358.19
2022-08-26T17:02:59.502Z,101358.00
2022-08-26T17:05:32.048Z,101366.16
2022-08-26T17:08:05.201Z,101368.66
2022-08-26T17:10:37.770Z,101362.53
2022-08-26T17:13:10.336Z,101366.34
2022-08-26T17:15:45.324Z,101362.94
2022-08-26T17:18:17.711Z,101362.88
2022-08-26T17:20:50.733Z,101364.22
2022-08-26T17:23:23.166Z,101367.91
2022-08-26T17:25:55.552Z,101362.66
2022-08-26T17:28:28.154Z,101367.50
2022-08-26T17:31:01.254Z,101368.66
2022-08-26T17:33:33.776Z,101377.00
2022-08-26T17:36:07.803Z,101377.00
2022-08-26T17:38:40.662Z,101377.38
2022-08-26T17:41:16.477Z,101379.88
2022-08-26T17:43:48.806Z,101376.59
2022-08-26T17:46:21.337Z,101372.53
2022-08-26T17:48:53.804Z,101379.69
2022-08-26T17:51:26.542Z,101381.72
2022-08-26T17:53:58.887Z,101388.16
2022-08-26T17:56:31.289Z,101386.41
2022-08-26T17:59:04.101Z,101382.34
2022-08-26T18:01:37.139Z,101385.31
2022-08-26T18:04:10.244Z,101381.91
2022-08-26T18:06:43.309Z,101387.91
2022-08-26T18:09:15.731Z,101390.41
2022-08-26T18:11:48.052Z,101389.22
2022-08-26T18:14:21.731Z,101390.78
2022-08-26T18:16:54.188Z,101393.28
2022-08-26T18:19:26.578Z,101400.78
2022-08-26T18:21:58.921Z,101401.75
2022-08-26T18:24:32.191Z,101398.81
2022-08-26T18:27:04.802Z,101401.78
2022-08-26T18:29:37.256Z,101403.22
2022-08-26T18:32:17.977Z,101405.72
2022-08-26T18:34:50.324Z,101401.84
2022-08-26T18:37:22.674Z,101413.72
2022-08-26T18:39:55.100Z,101409.34
2022-08-26T18:42:27.528Z,101415.25
2022-08-26T18:44:59.848Z,101410.31
2022-08-26T18:47:32.254Z,101414.34
2022-08-26T18:50:04.832Z,101414.03
2022-08-26T18:52:37.286Z,101421.25
2022-08-26T18:55:09.681Z,101427.78
2022-08-26T18:57:42.062Z,101418.47
2022-08-26T19:00:14.656Z,101421.75
2022-08-26T19:02:52.101Z,101417.28
2022-08-26T19:05:25.480Z,101424.59
2022-08-26T19:07:57.897Z,101423.50
2022-08-26T19:10:30.221Z,101420.69
2022-08-26T19:13:02.786Z,101432.69
2022-08-26T19:15:41.829Z,101432.84
2022-08-26T19:18:15.098Z,101423.84
2022-08-26T19:20:47.854Z,101430.50
2022-08-26T19:23:31.363Z,101428.34
2022-08-26T19:26:06.035Z,101434.13
2022-08-26T19:28:40.815Z,101432.41
2022-08-26T19:31:13.306Z,101434.41
2022-08-26T19:33:45.725Z,101433.81
2022-08-26T19:36:19.915Z,101436.59
2022-08-26T19:38:52.814Z,101425.09
2022-08-26T19:41:37.240Z,101424.63
2022-08-26T19:44:13.007Z,101428.38
2022-08-26T19:46:45.411Z,101432.91
2022-08-26T19:49:17.896Z,101425.44
2022-08-26T19:51:51.414Z,101435.41
2022-08-26T19:54:24.064Z,101439.44
2022-08-26T19:56:57.324Z,101437.59
2022-08-26T19:59:29.795Z,101430.56
2022-08-26T20:02:05.989Z,101436.03
2022-08-26T20:04:39.677Z,101430.13
2022-08-26T20:07:16.512Z,101444.59
2022-08-26T20:09:51.283Z,101443.22
2022-08-26T20:12:24.780Z,101440.72
2022-08-26T20:14:57.122Z,101440.88
2022-08-26T20:17:29.476Z,101445.38
2022-08-26T20:20:32.730Z,101445.06
2022-08-26T20:23:06.028Z,101446.31
2022-08-26T20:25:38.477Z,101447.56
2022-08-26T20:28:11.047Z,101440.41
2022-08-26T20:30:43.591Z,101442.28
2022-08-26T20:33:16.059Z,101440.88
2022-08-26T20:35:48.444Z,101442.59
2022-08-26T20:38:21.571Z,101449.44
2022-08-26T20:40:54.165Z,101447.91
2022-08-26T20:43:29.313Z,101445.56
2022-08-26T20:46:01.822Z,101450.06
2022-08-26T20:48:34.235Z,101445.69
2022-08-26T20:51:07.108Z,101441.06
2022-08-26T20:53:39.465Z,101446.66
2022-08-26T20:56:12.708Z,101447.56
2022-08-26T20:58:45.052Z,101444.47
2022-08-26T21:01:19.071Z,101446.94
2022-08-26T21:03:52.702Z,101445.38
2022-08-26T21:06:25.231Z,101446.63
2022-08-26T21:08:57.573Z,101444.75
2022-08-26T21:11:30.217Z,101443.97
2022-08-26T21:14:06.897Z,101438.22
2022-08-26T21:16:48.791Z,101434.84
2022-08-26T21:19:21.285Z,101445.38
2022-08-26T21:21:53.653Z,101444.00
2022-08-26T21:24:26.064Z,101435.13
2022-08-26T21:26:58.569Z,101438.84
2022-08-26T21:29:30.973Z,101450.34
2022-08-26T21:32:03.706Z,101437.91
2022-08-26T21:34:36.053Z,101439.78
2022-08-26T21:37:09.021Z,101430.78
2022-08-26T21:39:52.235Z,101443.50
2022-08-26T21:42:26.267Z,101440.72
2022-08-26T21:44:58.977Z,101441.16
2022-08-26T21:47:32.501Z,101438.38
2022-08-26T21:50:05.529Z,101442.88
2022-08-26T21:52:38.183Z,101441.66
2022-08-26T21:55:11.715Z,101439.63
2022-08-26T21:57:44.336Z,101442.88
2022-08-26T22:00:17.073Z,101444.13
2022-08-26T22:02:50.156Z,101437.91
2022-08-26T22:05:22.602Z,101440.72
2022-08-26T22:07:57.625Z,101442.88
2022-08-26T22:10:29.978Z,101449.72
2022-08-26T22:13:02.351Z,101453.44
2022-08-26T22:15:35.501Z,101453.59
2022-08-26T22:18:09.503Z,101446.00
2022-08-26T22:20:42.212Z,101451.91
2022-08-26T22:23:14.576Z,101455.63
2022-08-26T22:25:47.399Z,101464.47
2022-08-26T22:28:20.285Z,101457.16
2022-08-26T22:30:52.683Z,101459.97
2022-08-26T22:33:25.333Z,101469.28
2022-08-26T22:35:57.718Z,101460.59
2022-08-26T22:38:30.364Z,101466.19
2022-08-26T22:41:06.534Z,101463.06
2022-08-26T22:43:41.171Z,101459.81
2022-08-26T22:46:24.631Z,101465.56
2022-08-26T22:48:57.051Z,101465.69
2022-08-26T22:51:29.836Z,101464.16
2022-08-26T22:54:02.423Z,101465.38
2022-08-26T22:56:35.185Z,101464.28
2022-08-26T22:59:08.310Z,101462.75
2022-08-26T23:01:42.364Z,101455.59
2022-08-26T23:04:15.050Z,101459.63
2022-08-26T23:06:48.102Z,101456.22
2022-08-26T23:09:21.028Z,101451.84
2022-08-26T23:11:55.897Z,101461.94
2022-08-26T23:14:28.387Z,101460.22
2022-08-26T23:17:00.817Z,101456.53
2022-08-26T23:19:33.202Z,101455.44
2022-08-26T23:22:05.628Z,101459.47
2022-08-26T23:24:38.099Z,101460.53
2022-08-26T23:27:10.468Z,101461.47
2022-08-26T23:29:43.120Z,101458.38
2022-08-26T23:32:15.559Z,101464.72
2022-08-26T23:34:58.648Z,101457.44
2022-08-26T23:37:42.067Z,101460.97
2022-08-26T23:40:16.433Z,101464.88
2022-08-26T23:42:48.916Z,101468.28
2022-08-26T23:45:22.571Z,101460.22
2022-08-26T23:47:55.320Z,101450.56
2022-08-26T23:50:48.612Z,101460.97
2022-08-26T23:53:22.312Z,101463.72
2022-08-26T23:55:55.380Z,101460.16
2022-08-26T23:58:27.753Z,101463.81
